createdAt,value
2019-03-01T00:00:00.732Z,9.25
2019-03-01T00:02:28.023Z,8.79
2019-03-01T00:05:13.503Z,8.78
2019-03-01T00:08:09.402Z,8.64
2019-03-01T00:10:49.009Z,8.50
2019-03-01T00:13:39.310Z,8.44
2019-03-01T00:16:19.037Z,8.20
2019-03-01T00:19:06.481Z,8.03
2019-03-01T00:21:43.003Z,7.87
2019-03-01T00:24:22.131Z,7.86
2019-03-01T00:27:01.355Z,7.81
2019-03-01T00:29:31.614Z,7.64
2019-03-01T00:32:04.954Z,7.53
2019-03-01T00:34:41.651Z,7.43
2019-03-01T00:37:21.081Z,7.44
2019-03-01T00:40:08.158Z,7.34
2019-03-01T00:42:39.559Z,7.34
2019-03-01T00:45:07.303Z,7.28
2019-03-01T00:47:33.925Z,7.16
2019-03-01T00:50:00.686Z,7.09
2019-03-01T00:52:27.283Z,7.05
2019-03-01T00:54:53.972Z,6.98
2019-03-01T00:57:20.643Z,6.88
2019-03-01T00:59:47.442Z,6.81
2019-03-01T01:02:14.150Z,6.75
2019-03-01T01:04:40.977Z,6.65
2019-03-01T01:07:07.586Z,6.63
2019-03-01T01:09:34.239Z,6.60
2019-03-01T01:12:00.905Z,6.52
2019-03-01T01:14:27.674Z,6.46
2019-03-01T01:16:54.387Z,6.38
2019-03-01T01:19:21.288Z,6.29
2019-03-01T01:21:47.996Z,6.23
2019-03-01T01:24:14.629Z,6.25
2019-03-01T01:26:41.331Z,6.11
2019-03-01T01:29:07.927Z,6.00
2019-03-01T01:31:34.949Z,5.94
2019-03-01T01:34:01.740Z,5.89
2019-03-01T01:36:28.360Z,5.73
2019-03-01T01:38:55.016Z,5.75
2019-03-01T01:41:21.719Z,5.71
2019-03-01T01:43:48.334Z,5.60
2019-03-01T01:46:15.004Z,5.52
2019-03-01T01:48:41.670Z,5.49
2019-03-01T01:51:08.286Z,5.56
2019-03-01T01:53:35.015Z,5.43
2019-03-01T01:56:01.699Z,5.36
2019-03-01T01:58:28.392Z,5.35
2019-03-01T02:00:55.086Z,5.30
2019-03-01T02:03:21.791Z,5.21
2019-03-01T02:05:48.686Z,5.12
2019-03-01T02:08:15.353Z,5.02
2019-03-01T02:10:42.039Z,5.06
2019-03-01T02:13:08.722Z,5.02
2019-03-01T02:15:35.489Z,4.95
2019-03-01T02:18:02.314Z,4.97
2019-03-01T02:20:29.999Z,4.91
2019-03-01T02:22:56.658Z,4.89
2019-03-01T02:25:23.528Z,4.79
2019-03-01T02:27:50.160Z,4.78
2019-03-01T02:30:23.562Z,4.77
2019-03-01T02:32:50.309Z,4.81
2019-03-01T02:35:18.060Z,4.74
2019-03-01T02:37:44.810Z,4.87
2019-03-01T02:40:13.193Z,4.93
2019-03-01T02:42:39.822Z,4.87
2019-03-01T02:45:12.300Z,4.80
2019-03-01T02:47:39.025Z,4.74
2019-03-01T02:50:08.438Z,4.75
2019-03-01T02:52:35.275Z,4.65
2019-03-01T02:55:03.441Z,4.53
2019-03-01T02:57:30.190Z,4.47
2019-03-01T02:59:56.926Z,4.38
2019-03-01T03:02:23.618Z,4.32
2019-03-01T03:04:50.231Z,4.30
2019-03-01T03:07:18.785Z,4.25
2019-03-01T03:09:45.623Z,4.23
2019-03-01T03:12:12.668Z,4.25
2019-03-01T03:14:39.413Z,4.23
2019-03-01T03:17:06.148Z,4.14
2019-03-01T03:19:32.783Z,3.99
2019-03-01T03:22:00.444Z,3.98
2019-03-01T03:24:27.180Z,3.94
2019-03-01T03:26:53.818Z,3.90
2019-03-01T03:29:20.662Z,3.85
2019-03-01T03:31:47.421Z,3.88
2019-03-01T03:34:14.141Z,3.84
2019-03-01T03:36:40.832Z,3.77
2019-03-01T03:39:10.178Z,3.84
2019-03-01T03:41:37.020Z,3.76
2019-03-01T03:44:03.767Z,3.73
2019-03-01T03:46:30.481Z,3.72
2019-03-01T03:48:57.250Z,3.73
2019-03-01T03:51:23.979Z,3.83
2019-03-01T03:53:50.725Z,3.77
2019-03-01T03:56:17.375Z,3.79
2019-03-01T03:58:43.982Z,3.79
2019-03-01T04:01:10.733Z,3.78
2019-03-01T04:03:37.367Z,3.80
2019-03-01T04:06:04.119Z,3.77
2019-03-01T04:08:30.952Z,3.81
2019-03-01T04:10:57.585Z,3.76
2019-03-01T04:13:24.233Z,3.84
2019-03-01T04:15:50.980Z,3.81
2019-03-01T04:18:17.603Z,3.78
2019-03-01T04:20:44.262Z,3.79
2019-03-01T04:23:11.178Z,3.84
2019-03-01T04:25:37.925Z,3.80
2019-03-01T04:28:04.659Z,3.62
2019-03-01T04:30:31.404Z,3.63
2019-03-01T04:32:58.167Z,3.57
2019-03-01T04:35:24.877Z,3.61
2019-03-01T04:37:51.727Z,3.60
2019-03-01T04:40:18.459Z,3.57
2019-03-01T04:42:45.306Z,3.54
2019-03-01T04:45:13.472Z,3.57
2019-03-01T04:47:40.220Z,3.61
2019-03-01T04:50:09.965Z,3.58
2019-03-01T04:52:36.937Z,3.54
2019-03-01T04:55:16.007Z,3.56
2019-03-01T04:57:42.738Z,3.52
2019-03-01T05:00:14.813Z,3.29
2019-03-01T05:02:41.382Z,3.32
2019-03-01T05:05:08.482Z,3.34
2019-03-01T05:07:35.220Z,3.27
2019-03-01T05:10:02.789Z,3.30
2019-03-01T05:12:30.542Z,3.27
2019-03-01T05:14:57.234Z,3.29
2019-03-01T05:17:23.849Z,3.25
2019-03-01T05:19:50.508Z,3.20
2019-03-01T05:22:17.298Z,3.17
2019-03-01T05:24:44.241Z,3.08
2019-03-01T05:27:10.944Z,3.10
2019-03-01T05:29:37.640Z,3.11
2019-03-01T05:32:04.236Z,3.06
2019-03-01T05:34:30.906Z,3.01
2019-03-01T05:36:57.630Z,2.92
2019-03-01T05:39:24.246Z,2.89
2019-03-01T05:41:50.837Z,2.80
2019-03-01T05:44:17.528Z,2.82
2019-03-01T05:46:44.186Z,2.81
2019-03-01T05:49:10.798Z,2.82
2019-03-01T05:51:37.471Z,2.81
2019-03-01T05:54:04.063Z,2.77
2019-03-01T05:56:30.678Z,2.81
2019-03-01T06:02:58.541Z,2.87
2019-03-01T06:05:59.195Z,2.84
2019-03-01T06:09:08.557Z,2.61
2019-03-01T06:12:12.510Z,2.59
2019-03-01T06:15:46.669Z,2.73
2019-03-01T06:19:07.664Z,2.81
2019-03-01T06:22:42.688Z,2.86
2019-03-01T06:25:54.328Z,2.97
2019-03-01T06:29:15.426Z,3.16
2019-03-01T06:35:56.337Z,3.46
2019-03-01T06:42:54.677Z,3.58
2019-03-01T06:49:22.360Z,3.73
2019-03-01T06:52:33.909Z,4.13
2019-03-01T06:59:18.308Z,4.31
2019-03-01T07:05:46.058Z,4.47
2019-03-01T07:09:05.032Z,4.53
2019-03-01T07:12:08.332Z,4.49
2019-03-01T07:15:25.978Z,4.53
2019-03-01T07:18:26.551Z,4.55
2019-03-01T07:21:42.151Z,4.60
2019-03-01T07:28:27.370Z,4.76
2019-03-01T07:34:56.477Z,4.97
2019-03-01T07:38:01.325Z,5.07
2019-03-01T07:41:14.690Z,5.19
2019-03-01T07:44:18.585Z,5.23
2019-03-01T07:47:29.679Z,5.37
2019-03-01T07:50:25.627Z,5.36
2019-03-01T07:53:16.739Z,5.45
2019-03-01T07:56:25.515Z,5.64
2019-03-01T07:59:49.188Z,5.94
2019-03-01T08:02:45.981Z,6.09
2019-03-01T08:06:00.846Z,6.18
2019-03-01T08:08:43.306Z,6.41
2019-03-01T08:11:31.767Z,6.74
2019-03-01T08:14:31.550Z,7.41
2019-03-01T08:17:31.609Z,7.76
2019-03-01T08:20:33.917Z,7.81
2019-03-01T08:23:22.826Z,7.86
2019-03-01T08:26:04.138Z,8.11
2019-03-01T08:29:04.314Z,8.61
2019-03-01T08:32:02.074Z,8.73
2019-03-01T08:35:11.544Z,8.79
2019-03-01T08:38:17.181Z,8.70
2019-03-01T08:41:33.915Z,9.10
2019-03-01T08:44:49.969Z,9.04
2019-03-01T08:48:08.403Z,9.35
2019-03-01T08:51:14.964Z,9.27
2019-03-01T08:54:22.982Z,9.63
2019-03-01T08:57:28.212Z,9.65
2019-03-01T09:00:45.048Z,9.89
2019-03-01T09:03:41.587Z,10.18
2019-03-01T09:06:44.313Z,10.60
2019-03-01T09:09:45.313Z,10.84
2019-03-01T09:12:56.153Z,10.82
2019-03-01T09:15:57.437Z,10.91
2019-03-01T09:19:08.658Z,11.07
2019-03-01T09:22:06.006Z,11.15
2019-03-01T09:25:14.479Z,10.96
2019-03-01T09:28:20.566Z,11.08
2019-03-01T09:31:34.815Z,11.15
2019-03-01T09:34:49.512Z,11.36
2019-03-01T09:37:45.632Z,11.13
2019-03-01T09:41:04.423Z,11.41
2019-03-01T09:43:52.022Z,11.84
2019-03-01T09:47:04.432Z,12.03
2019-03-01T09:49:36.302Z,12.47
2019-03-01T09:52:35.015Z,12.75
2019-03-01T09:55:38.562Z,12.75
2019-03-01T09:58:39.294Z,12.66
2019-03-01T10:01:48.997Z,12.81
2019-03-01T10:04:55.675Z,13.22
2019-03-01T10:08:14.139Z,13.66
2019-03-01T10:11:26.035Z,13.68
2019-03-01T10:14:32.669Z,14.00
2019-03-01T10:17:35.980Z,14.21
2019-03-01T10:20:49.940Z,14.28
2019-03-01T10:23:48.857Z,14.48
2019-03-01T10:27:08.318Z,14.76
2019-03-01T10:30:15.270Z,14.93
2019-03-01T10:33:21.745Z,15.08
2019-03-01T10:36:04.991Z,15.14
2019-03-01T10:39:02.753Z,15.04
2019-03-01T10:42:15.801Z,15.42
2019-03-01T10:48:36.408Z,16.22
2019-03-01T10:51:52.398Z,16.44
2019-03-01T10:58:24.155Z,17.34
2019-03-01T11:01:22.045Z,17.78
2019-03-01T11:04:30.665Z,17.99
2019-03-01T11:07:27.750Z,18.29
2019-03-01T11:10:27.353Z,18.77
2019-03-01T11:13:50.999Z,18.68
2019-03-01T11:20:29.742Z,19.17
2019-03-01T11:27:00.325Z,19.48
2019-03-01T11:30:20.188Z,19.21
2019-03-01T11:33:17.582Z,18.78
2019-03-01T11:36:14.522Z,18.41
2019-03-01T11:39:29.911Z,18.32
2019-03-01T11:46:02.647Z,17.92
2019-03-01T11:49:22.818Z,17.67
2019-03-01T11:55:58.262Z,17.31
2019-03-01T12:02:33.205Z,17.18
2019-03-01T12:05:26.811Z,17.15
2019-03-01T12:08:36.510Z,17.05
2019-03-01T12:11:57.273Z,17.21
2019-03-01T12:14:59.482Z,17.62
2019-03-01T12:18:16.328Z,18.09
2019-03-01T12:21:20.819Z,18.72
2019-03-01T12:24:33.593Z,19.27
2019-03-01T12:27:37.681Z,19.89
2019-03-01T12:30:55.044Z,20.04
2019-03-01T12:34:02.313Z,19.99
2019-03-01T12:37:23.266Z,19.83
2019-03-01T12:40:34.449Z,19.82
2019-03-01T12:43:47.528Z,19.78
2019-03-01T12:50:21.617Z,19.57
2019-03-01T12:53:45.734Z,19.64
2019-03-01T12:56:49.598Z,19.55
2019-03-01T13:00:05.103Z,19.38
2019-03-01T13:03:09.081Z,19.18
2019-03-01T13:06:21.088Z,18.89
2019-03-01T13:09:27.344Z,18.66
2019-03-01T13:12:43.250Z,18.24
2019-03-01T13:15:54.183Z,18.10
2019-03-01T13:18:56.817Z,18.00
2019-03-01T13:22:14.787Z,17.71
2019-03-01T13:28:51.253Z,17.90
2019-03-01T13:35:10.731Z,17.95
2019-03-01T13:38:19.379Z,17.88
2019-03-01T13:41:40.888Z,17.89
2019-03-01T13:44:11.332Z,17.70
2019-03-01T13:47:08.579Z,17.56
2019-03-01T13:50:22.836Z,17.48
2019-03-01T13:56:42.886Z,17.34
2019-03-01T13:59:44.694Z,17.32
2019-03-01T14:03:02.009Z,17.34
2019-03-01T14:05:54.707Z,17.40
2019-03-01T14:08:59.860Z,17.37
2019-03-01T14:12:07.679Z,17.31
2019-03-01T14:15:10.786Z,17.36
2019-03-01T14:18:28.358Z,17.30
2019-03-01T14:24:54.819Z,17.19
2019-03-01T14:27:52.868Z,17.16
2019-03-01T14:31:04.036Z,17.15
2019-03-01T14:37:11.059Z,17.00
2019-03-01T14:40:14.221Z,16.98
2019-03-01T14:43:32.574Z,16.93
2019-03-01T14:46:34.277Z,16.89
2019-03-01T14:49:54.049Z,16.87
2019-03-01T14:52:58.409Z,16.72
2019-03-01T14:56:14.511Z,16.73
2019-03-01T14:59:17.513Z,16.70
2019-03-01T15:02:41.497Z,16.66
2019-03-01T15:05:45.585Z,16.58
2019-03-01T15:09:06.555Z,16.40
2019-03-01T15:12:21.120Z,16.15
2019-03-01T15:15:33.980Z,16.27
2019-03-01T15:18:32.394Z,16.32
2019-03-01T15:21:49.248Z,16.33
2019-03-01T15:28:25.075Z,16.20
2019-03-01T15:35:02.788Z,16.07
2019-03-01T15:37:53.120Z,15.93
2019-03-01T15:41:09.244Z,15.94
2019-03-01T15:47:31.673Z,15.92
2019-03-01T15:50:47.988Z,15.84
2019-03-01T15:53:51.444Z,15.73
2019-03-01T15:56:48.552Z,15.42
2019-03-01T15:59:51.718Z,15.15
2019-03-01T16:02:49.946Z,14.90
2019-03-01T16:06:10.281Z,14.79
2019-03-01T16:09:03.791Z,14.59
2019-03-01T16:12:06.226Z,14.42
2019-03-01T16:14:57.423Z,14.41
2019-03-01T16:17:53.826Z,14.33
2019-03-01T16:21:05.266Z,14.21
2019-03-01T16:24:11.306Z,14.18
2019-03-01T16:27:12.042Z,14.13
2019-03-01T16:30:06.948Z,13.98
2019-03-01T16:33:15.960Z,13.96
2019-03-01T16:39:45.006Z,13.76
2019-03-01T16:42:45.335Z,13.65
2019-03-01T16:45:56.318Z,13.59
2019-03-01T16:48:58.934Z,13.51
2019-03-01T16:52:11.662Z,13.47
2019-03-01T16:55:20.515Z,13.35
2019-03-01T16:58:36.810Z,13.23
2019-03-01T17:01:46.377Z,13.16
2019-03-01T17:05:03.685Z,13.05
2019-03-01T17:08:05.612Z,13.07
2019-03-01T17:11:09.372Z,12.97
2019-03-01T17:14:03.395Z,12.86
2019-03-01T17:17:07.210Z,12.71
2019-03-01T17:20:14.728Z,12.64
2019-03-01T17:23:24.759Z,12.54
2019-03-01T17:26:38.973Z,12.39
2019-03-01T17:29:35.789Z,12.35
2019-03-01T17:32:36.939Z,12.29
2019-03-01T17:35:32.975Z,12.25
2019-03-01T17:38:33.156Z,12.12
2019-03-01T17:41:45.866Z,12.06
2019-03-01T17:44:47.635Z,12.02
2019-03-01T17:47:42.198Z,11.95
2019-03-01T17:50:57.011Z,11.92
2019-03-01T17:54:00.503Z,11.91
2019-03-01T17:57:24.377Z,11.90
2019-03-01T18:00:31.530Z,11.99
2019-03-01T18:03:58.091Z,11.94
2019-03-01T18:06:56.802Z,11.96
2019-03-01T18:10:17.784Z,12.03
2019-03-01T18:13:15.132Z,12.07
2019-03-01T18:16:32.305Z,12.10
2019-03-01T18:19:35.221Z,12.11
2019-03-01T18:22:51.600Z,12.20
2019-03-01T18:25:22.882Z,12.32
2019-03-01T18:27:53.129Z,12.39
2019-03-01T18:30:29.860Z,12.36
2019-03-01T18:32:56.472Z,12.30
2019-03-01T18:35:23.171Z,12.28
2019-03-01T18:37:51.466Z,12.27
2019-03-01T18:40:18.638Z,12.33
2019-03-01T18:42:45.286Z,12.30
2019-03-01T18:45:20.152Z,12.31
2019-03-01T18:47:46.950Z,12.23
2019-03-01T18:50:33.725Z,12.25
2019-03-01T18:53:03.604Z,12.36
2019-03-01T18:55:30.275Z,12.22
2019-03-01T18:57:56.867Z,12.18
2019-03-01T19:00:38.614Z,12.22
2019-03-01T19:03:06.003Z,12.25
2019-03-01T19:05:32.703Z,12.61
2019-03-01T19:08:00.838Z,12.57
2019-03-01T19:10:29.170Z,12.61
2019-03-01T19:12:55.787Z,12.59
2019-03-01T19:15:22.452Z,12.58
2019-03-01T19:17:49.130Z,12.56
2019-03-01T19:20:21.861Z,12.66
2019-03-01T19:22:48.668Z,12.72
2019-03-01T19:25:15.890Z,12.68
2019-03-01T19:27:42.502Z,12.60
2019-03-01T19:30:13.751Z,12.55
2019-03-01T19:32:40.457Z,12.53
2019-03-01T19:35:08.370Z,12.40
2019-03-01T19:37:35.079Z,12.31
2019-03-01T19:40:01.784Z,12.30
2019-03-01T19:42:32.791Z,12.19
2019-03-01T19:45:00.702Z,12.12
2019-03-01T19:47:27.379Z,12.02
2019-03-01T19:49:56.590Z,12.00
2019-03-01T19:52:23.350Z,11.94
2019-03-01T19:54:50.025Z,11.80
2019-03-01T19:57:16.741Z,11.72
2019-03-01T19:59:46.531Z,11.60
2019-03-01T20:02:11.985Z,11.47
2019-03-01T20:04:38.642Z,11.31
2019-03-01T20:07:06.226Z,11.22
2019-03-01T20:09:33.007Z,11.08
2019-03-01T20:12:02.697Z,11.25
2019-03-01T20:14:30.312Z,11.34
2019-03-01T20:16:58.178Z,11.31
2019-03-01T20:19:25.516Z,11.48
2019-03-01T20:21:52.123Z,11.60
2019-03-01T20:24:18.833Z,11.55
2019-03-01T20:26:45.548Z,11.30
2019-03-01T20:29:12.196Z,11.01
2019-03-01T20:31:40.476Z,10.80
2019-03-01T20:34:07.469Z,10.58
2019-03-01T20:36:34.055Z,10.43
2019-03-01T20:39:01.732Z,10.37
2019-03-01T20:41:30.199Z,10.24
2019-03-01T20:43:56.917Z,10.07
2019-03-01T20:46:24.474Z,9.94
2019-03-01T20:48:51.362Z,9.78
2019-03-01T20:51:18.186Z,9.68
2019-03-01T20:53:45.744Z,9.64
2019-03-01T20:56:16.795Z,9.56
2019-03-01T20:58:42.051Z,9.47
2019-03-01T21:01:08.703Z,9.39
2019-03-01T21:03:35.360Z,9.30
2019-03-01T21:06:04.666Z,9.19
2019-03-01T21:08:30.707Z,9.06
2019-03-01T21:10:57.403Z,9.10
2019-03-01T21:13:24.030Z,8.96
2019-03-01T21:15:50.688Z,8.80
2019-03-01T21:18:17.438Z,8.73
2019-03-01T21:20:45.036Z,8.61
2019-03-01T21:23:11.872Z,8.51
2019-03-01T21:25:40.838Z,8.48
2019-03-01T21:28:07.735Z,8.39
2019-03-01T21:30:34.354Z,8.29
2019-03-01T21:33:01.027Z,8.13
2019-03-01T21:35:27.638Z,8.02
2019-03-01T21:37:54.235Z,8.01
2019-03-01T21:40:20.998Z,8.04
2019-03-01T21:42:47.596Z,7.91
2019-03-01T21:45:21.525Z,7.87
2019-03-01T21:47:47.999Z,7.87
2019-03-01T21:50:15.547Z,7.73
2019-03-01T21:52:42.202Z,7.59
2019-03-01T21:55:18.390Z,7.61
2019-03-01T21:57:45.063Z,7.55
2019-03-01T22:00:15.298Z,7.46
2019-03-01T22:02:43.810Z,7.36
2019-03-01T22:05:13.638Z,7.22
2019-03-01T22:07:40.587Z,6.87
2019-03-01T22:10:11.334Z,6.94
2019-03-01T22:12:37.963Z,7.00
2019-03-01T22:15:10.952Z,6.92
2019-03-01T22:17:37.705Z,6.87
2019-03-01T22:20:08.920Z,6.77
2019-03-01T22:22:37.510Z,6.80
2019-03-01T22:25:12.019Z,6.66
2019-03-01T22:27:38.680Z,6.70
2019-03-01T22:30:31.757Z,6.73
2019-03-01T22:32:58.421Z,6.66
2019-03-01T22:35:25.127Z,6.58
2019-03-01T22:37:51.908Z,6.58
2019-03-01T22:40:18.613Z,6.59
2019-03-01T22:42:45.672Z,6.50
2019-03-01T22:45:15.302Z,6.48
2019-03-01T22:47:41.975Z,6.51
2019-03-01T22:50:15.900Z,6.42
2019-03-01T22:52:42.657Z,6.35
2019-03-01T22:55:13.999Z,6.32
2019-03-01T22:57:40.613Z,6.26
2019-03-01T23:00:27.182Z,6.26
2019-03-01T23:02:55.846Z,6.14
2019-03-01T23:05:22.475Z,6.05
2019-03-01T23:07:49.154Z,6.02
2019-03-01T23:10:18.454Z,5.95
2019-03-01T23:12:44.623Z,5.88
2019-03-01T23:15:11.287Z,5.87
2019-03-01T23:17:38.024Z,5.81
2019-03-01T23:20:08.911Z,5.76
2019-03-01T23:22:35.571Z,5.66
2019-03-01T23:25:02.252Z,5.68
2019-03-01T23:27:31.836Z,5.61
2019-03-01T23:29:57.452Z,5.63
2019-03-01T23:32:24.168Z,5.62
2019-03-01T23:34:50.919Z,5.57
2019-03-01T23:37:17.632Z,5.54
2019-03-01T23:39:44.329Z,5.51
2019-03-01T23:42:10.920Z,5.47
2019-03-01T23:44:38.667Z,5.41
2019-03-01T23:47:06.198Z,5.32
2019-03-01T23:49:32.915Z,5.40
2019-03-01T23:51:59.739Z,5.37
2019-03-01T23:54:26.503Z,5.30
2019-03-01T23:56:53.109Z,4.87
2019-03-01T23:59:19.795Z,4.84
